sensor_id;sensor_type;location;lat;lon;timestamp;temperature;humidity
3416;DHT22;1721;51.238;9.562;2023-02-04T00:01:43;7.30;95.80
3416;DHT22;1721;51.238;9.562;2023-02-04T00:04:12;7.20;95.80
3416;DHT22;1721;51.238;9.562;2023-02-04T00:06:37;7.30;95.80
3416;DHT22;1721;51.238;9.562;2023-02-04T00:09:03;7.20;95.80
3416;DHT22;1721;51.238;9.562;2023-02-04T00:11:29;7.10;96.10
3416;DHT22;1721;51.238;9.562;2023-02-04T00:13:54;7.10;96.30
3416;DHT22;1721;51.238;9.562;2023-02-04T00:16:20;7.20;96.10
3416;DHT22;1721;51.238;9.562;2023-02-04T00:18:45;7.00;96.40
3416;DHT22;1721;51.238;9.562;2023-02-04T00:21:11;7.00;96.40
3416;DHT22;1721;51.238;9.562;2023-02-04T00:23:37;6.90;96.60
3416;DHT22;1721;51.238;9.562;2023-02-04T00:26:02;6.80;96.80
3416;DHT22;1721;51.238;9.562;2023-02-04T00:28:28;6.90;96.40
3416;DHT22;1721;51.238;9.562;2023-02-04T00:30:54;6.80;96.90
3416;DHT22;1721;51.238;9.562;2023-02-04T00:33:19;7.10;96.80
3416;DHT22;1721;51.238;9.562;2023-02-04T00:35:45;7.10;96.80
3416;DHT22;1721;51.238;9.562;2023-02-04T00:38:10;7.00;96.80
3416;DHT22;1721;51.238;9.562;2023-02-04T00:40:36;7.00;97.30
3416;DHT22;1721;51.238;9.562;2023-02-04T00:43:01;7.10;97.30
3416;DHT22;1721;51.238;9.562;2023-02-04T00:45:27;7.20;97.50
3416;DHT22;1721;51.238;9.562;2023-02-04T00:47:53;7.10;98.00
3416;DHT22;1721;51.238;9.562;2023-02-04T00:50:18;7.30;98.00
3416;DHT22;1721;51.238;9.562;2023-02-04T00:52:44;7.30;98.70
3416;DHT22;1721;51.238;9.562;2023-02-04T00:55:09;7.20;99.60
3416;DHT22;1721;51.238;9.562;2023-02-04T00:57:37;7.00;99.90
3416;DHT22;1721;51.238;9.562;2023-02-04T01:00:03;6.90;99.90
3416;DHT22;1721;51.238;9.562;2023-02-04T01:02:29;6.60;99.90
3416;DHT22;1721;51.238;9.562;2023-02-04T01:04:55;6.40;99.90
3416;DHT22;1721;51.238;9.562;2023-02-04T01:07:20;6.40;99.90
3416;DHT22;1721;51.238;9.562;2023-02-04T01:09:46;6.40;99.90
3416;DHT22;1721;51.238;9.562;2023-02-04T01:12:11;6.20;99.90
3416;DHT22;1721;51.238;9.562;2023-02-04T01:14:37;6.20;99.90
3416;DHT22;1721;51.238;9.562;2023-02-04T01:17:03;6.00;99.90
3416;DHT22;1721;51.238;9.562;2023-02-04T01:19:28;5.90;99.90
3416;DHT22;1721;51.238;9.562;2023-02-04T01:21:54;5.90;99.90
3416;DHT22;1721;51.238;9.562;2023-02-04T01:24:19;6.10;99.90
3416;DHT22;1721;51.238;9.562;2023-02-04T01:26:45;5.90;99.90
3416;DHT22;1721;51.238;9.562;2023-02-04T01:29:10;6.00;99.90
3416;DHT22;1721;51.238;9.562;2023-02-04T01:31:36;6.10;99.90
3416;DHT22;1721;51.238;9.562;2023-02-04T01:34:01;6.10;99.90
3416;DHT22;1721;51.238;9.562;2023-02-04T01:36:28;6.10;99.90
3416;DHT22;1721;51.238;9.562;2023-02-04T01:38:54;5.90;99.90
3416;DHT22;1721;51.238;9.562;2023-02-04T01:41:20;6.00;99.90
3416;DHT22;1721;51.238;9.562;2023-02-04T01:43:46;6.00;99.90
3416;DHT22;1721;51.238;9.562;2023-02-04T01:46:12;6.30;99.90
3416;DHT22;1721;51.238;9.562;2023-02-04T01:48:38;6.50;99.90
3416;DHT22;1721;51.238;9.562;2023-02-04T01:51:07;6.60;99.80
3416;DHT22;1721;51.238;9.562;2023-02-04T01:53:34;6.60;99.30
3416;DHT22;1721;51.238;9.562;2023-02-04T01:56:01;6.70;99.20
3416;DHT22;1721;51.238;9.562;2023-02-04T01:58:29;6.70;98.90
3416;DHT22;1721;51.238;9.562;2023-02-04T02:00:56;6.70;98.80
3416;DHT22;1721;51.238;9.562;2023-02-04T02:03:21;6.70;98.90
3416;DHT22;1721;51.238;9.562;2023-02-04T02:05:50;6.90;98.40
3416;DHT22;1721;51.238;9.562;2023-02-04T02:08:17;6.90;97.80
3416;DHT22;1721;51.238;9.562;2023-02-04T02:10:44;6.80;98.10
3416;DHT22;1721;51.238;9.562;2023-02-04T02:13:13;6.80;98.20
3416;DHT22;1721;51.238;9.562;2023-02-04T02:15:40;6.60;98.50
3416;DHT22;1721;51.238;9.562;2023-02-04T02:18:06;6.80;98.40
3416;DHT22;1721;51.238;9.562;2023-02-04T02:20:32;6.90;98.00
3416;DHT22;1721;51.238;9.562;2023-02-04T02:23:43;6.90;98.20
3416;DHT22;1721;51.238;9.562;2023-02-04T02:26:09;6.60;98.20
3416;DHT22;1721;51.238;9.562;2023-02-04T02:28:35;6.60;98.40
3416;DHT22;1721;51.238;9.562;2023-02-04T02:31:01;6.70;98.40
3416;DHT22;1721;51.238;9.562;2023-02-04T02:33:27;6.70;98.30
3416;DHT22;1721;51.238;9.562;2023-02-04T02:35:53;6.80;98.20
3416;DHT22;1721;51.238;9.562;2023-02-04T02:38:19;6.70;98.20
3416;DHT22;1721;51.238;9.562;2023-02-04T02:40:45;6.60;98.50
3416;DHT22;1721;51.238;9.562;2023-02-04T02:43:19;6.60;98.60
3416;DHT22;1721;51.238;9.562;2023-02-04T02:45:46;6.80;98.30
3416;DHT22;1721;51.238;9.562;2023-02-04T02:48:12;6.70;98.70
3416;DHT22;1721;51.238;9.562;2023-02-04T02:50:38;6.70;98.70
3416;DHT22;1721;51.238;9.562;2023-02-04T02:53:09;6.60;98.90
3416;DHT22;1721;51.238;9.562;2023-02-04T02:55:34;6.80;99.00
3416;DHT22;1721;51.238;9.562;2023-02-04T02:58:00;6.70;99.10
3416;DHT22;1721;51.238;9.562;2023-02-04T03:00:29;6.60;99.30
3416;DHT22;1721;51.238;9.562;2023-02-04T03:03:05;6.60;99.60
3416;DHT22;1721;51.238;9.562;2023-02-04T03:05:36;6.70;99.50
3416;DHT22;1721;51.238;9.562;2023-02-04T03:08:03;7.00;99.20
3416;DHT22;1721;51.238;9.562;2023-02-04T03:10:29;7.10;99.60
3416;DHT22;1721;51.238;9.562;2023-02-04T03:12:55;7.10;99.60
3416;DHT22;1721;51.238;9.562;2023-02-04T03:15:21;6.80;99.90
3416;DHT22;1721;51.238;9.562;2023-02-04T03:17:46;6.70;99.90
3416;DHT22;1721;51.238;9.562;2023-02-04T03:20:13;6.60;99.90
3416;DHT22;1721;51.238;9.562;2023-02-04T03:22:39;6.40;99.90
3416;DHT22;1721;51.238;9.562;2023-02-04T03:25:05;6.30;99.90
3416;DHT22;1721;51.238;9.562;2023-02-04T03:27:31;6.40;99.90
3416;DHT22;1721;51.238;9.562;2023-02-04T03:29:57;6.60;99.90
3416;DHT22;1721;51.238;9.562;2023-02-04T03:32:23;6.90;99.90
3416;DHT22;1721;51.238;9.562;2023-02-04T03:34:49;7.10;99.90
3416;DHT22;1721;51.238;9.562;2023-02-04T03:37:14;7.10;99.90
3416;DHT22;1721;51.238;9.562;2023-02-04T03:39:40;7.20;99.90
3416;DHT22;1721;51.238;9.562;2023-02-04T03:42:05;7.20;99.90
3416;DHT22;1721;51.238;9.562;2023-02-04T03:44:31;7.30;99.90
3416;DHT22;1721;51.238;9.562;2023-02-04T03:46:56;7.40;99.90
3416;DHT22;1721;51.238;9.562;2023-02-04T03:49:22;7.40;99.70
3416;DHT22;1721;51.238;9.562;2023-02-04T03:51:47;7.40;99.80
3416;DHT22;1721;51.238;9.562;2023-02-04T03:54:13;7.40;99.60
3416;DHT22;1721;51.238;9.562;2023-02-04T03:56:38;7.30;99.80
3416;DHT22;1721;51.238;9.562;2023-02-04T03:59:04;7.40;99.70
3416;DHT22;1721;51.238;9.562;2023-02-04T04:01:30;7.20;99.80
3416;DHT22;1721;51.238;9.562;2023-02-04T04:03:55;7.10;99.90
3416;DHT22;1721;51.238;9.562;2023-02-04T04:06:21;7.00;99.90
3416;DHT22;1721;51.238;9.562;2023-02-04T04:08:46;7.10;99.60
3416;DHT22;1721;51.238;9.562;2023-02-04T04:11:12;7.00;99.50
3416;DHT22;1721;51.238;9.562;2023-02-04T04:13:37;6.90;99.50
3416;DHT22;1721;51.238;9.562;2023-02-04T04:16:03;6.70;99.10
3416;DHT22;1721;51.238;9.562;2023-02-04T04:18:29;6.70;99.30
3416;DHT22;1721;51.238;9.562;2023-02-04T04:20:57;6.70;99.10
3416;DHT22;1721;51.238;9.562;2023-02-04T04:23:23;6.60;98.90
3416;DHT22;1721;51.238;9.562;2023-02-04T04:25:48;6.60;98.80
3416;DHT22;1721;51.238;9.562;2023-02-04T04:28:14;6.70;98.60
3416;DHT22;1721;51.238;9.562;2023-02-04T04:30:39;6.70;98.80
3416;DHT22;1721;51.238;9.562;2023-02-04T04:33:05;6.40;98.90
3416;DHT22;1721;51.238;9.562;2023-02-04T04:35:31;6.40;99.20
3416;DHT22;1721;51.238;9.562;2023-02-04T04:37:56;6.50;99.20
3416;DHT22;1721;51.238;9.562;2023-02-04T04:40:22;6.40;99.20
3416;DHT22;1721;51.238;9.562;2023-02-04T04:42:47;6.60;99.00
3416;DHT22;1721;51.238;9.562;2023-02-04T04:45:13;6.60;98.60
3416;DHT22;1721;51.238;9.562;2023-02-04T04:47:38;6.50;98.50
3416;DHT22;1721;51.238;9.562;2023-02-04T04:50:04;6.50;98.80
3416;DHT22;1721;51.238;9.562;2023-02-04T04:52:30;6.60;98.80
3416;DHT22;1721;51.238;9.562;2023-02-04T04:54:55;6.50;98.40
3416;DHT22;1721;51.238;9.562;2023-02-04T04:57:21;6.60;98.30
3416;DHT22;1721;51.238;9.562;2023-02-04T04:59:46;6.70;98.30
3416;DHT22;1721;51.238;9.562;2023-02-04T05:02:12;6.70;98.40
3416;DHT22;1721;51.238;9.562;2023-02-04T05:04:38;6.70;98.50
3416;DHT22;1721;51.238;9.562;2023-02-04T05:07:03;6.80;98.10
3416;DHT22;1721;51.238;9.562;2023-02-04T05:09:29;6.80;98.10
3416;DHT22;1721;51.238;9.562;2023-02-04T05:11:55;6.80;97.90
3416;DHT22;1721;51.238;9.562;2023-02-04T05:14:20;6.80;97.60
3416;DHT22;1721;51.238;9.562;2023-02-04T05:16:46;6.90;97.70
3416;DHT22;1721;51.238;9.562;2023-02-04T05:19:11;6.90;97.70
3416;DHT22;1721;51.238;9.562;2023-02-04T05:21:37;6.90;97.70
3416;DHT22;1721;51.238;9.562;2023-02-04T05:24:03;6.90;97.90
3416;DHT22;1721;51.238;9.562;2023-02-04T05:26:31;7.00;97.50
3416;DHT22;1721;51.238;9.562;2023-02-04T05:28:57;7.00;97.50
3416;DHT22;1721;51.238;9.562;2023-02-04T05:31:24;7.00;97.30
3416;DHT22;1721;51.238;9.562;2023-02-04T05:33:50;7.10;97.10
3416;DHT22;1721;51.238;9.562;2023-02-04T05:36:16;7.20;97.00
3416;DHT22;1721;51.238;9.562;2023-02-04T05:38:42;7.30;96.90
3416;DHT22;1721;51.238;9.562;2023-02-04T05:41:07;7.20;97.00
3416;DHT22;1721;51.238;9.562;2023-02-04T05:43:33;7.20;96.90
3416;DHT22;1721;51.238;9.562;2023-02-04T05:46:00;7.10;96.90
3416;DHT22;1721;51.238;9.562;2023-02-04T05:48:25;7.20;96.70
3416;DHT22;1721;51.238;9.562;2023-02-04T05:50:51;7.00;96.70
3416;DHT22;1721;51.238;9.562;2023-02-04T05:53:16;6.70;96.50
3416;DHT22;1721;51.238;9.562;2023-02-04T05:55:42;6.70;96.30
3416;DHT22;1721;51.238;9.562;2023-02-04T05:58:07;6.40;96.40
3416;DHT22;1721;51.238;9.562;2023-02-04T06:00:33;6.40;96.40
3416;DHT22;1721;51.238;9.562;2023-02-04T06:02:58;6.20;96.50
3416;DHT22;1721;51.238;9.562;2023-02-04T06:05:24;6.00;96.60
3416;DHT22;1721;51.238;9.562;2023-02-04T06:07:50;6.10;96.60
3416;DHT22;1721;51.238;9.562;2023-02-04T06:10:15;6.10;96.50
3416;DHT22;1721;51.238;9.562;2023-02-04T06:12:41;5.90;96.40
3416;DHT22;1721;51.238;9.562;2023-02-04T06:15:08;5.80;96.70
3416;DHT22;1721;51.238;9.562;2023-02-04T06:17:34;5.90;96.70
3416;DHT22;1721;51.238;9.562;2023-02-04T06:19:59;6.00;96.50
3416;DHT22;1721;51.238;9.562;2023-02-04T06:22:25;5.80;96.60
3416;DHT22;1721;51.238;9.562;2023-02-04T06:24:51;5.80;96.30
3416;DHT22;1721;51.238;9.562;2023-02-04T06:27:16;5.80;96.60
3416;DHT22;1721;51.238;9.562;2023-02-04T06:29:48;5.90;96.40
3416;DHT22;1721;51.238;9.562;2023-02-04T06:32:14;5.80;96.10
3416;DHT22;1721;51.238;9.562;2023-02-04T06:34:40;5.90;96.20
3416;DHT22;1721;51.238;9.562;2023-02-04T06:37:05;5.90;96.30
3416;DHT22;1721;51.238;9.562;2023-02-04T06:39:31;5.90;96.40
3416;DHT22;1721;51.238;9.562;2023-02-04T06:41:56;5.90;96.50
3416;DHT22;1721;51.238;9.562;2023-02-04T06:44:22;5.80;96.60
3416;DHT22;1721;51.238;9.562;2023-02-04T06:46:47;5.80;96.40
3416;DHT22;1721;51.238;9.562;2023-02-04T06:49:13;5.90;96.50
3416;DHT22;1721;51.238;9.562;2023-02-04T06:51:39;6.00;96.60
3416;DHT22;1721;51.238;9.562;2023-02-04T06:54:04;5.90;96.60
3416;DHT22;1721;51.238;9.562;2023-02-04T06:56:30;6.10;96.50
3416;DHT22;1721;51.238;9.562;2023-02-04T06:58:55;6.30;96.30
3416;DHT22;1721;51.238;9.562;2023-02-04T07:01:21;6.30;96.00
3416;DHT22;1721;51.238;9.562;2023-02-04T07:03:46;6.30;96.10
3416;DHT22;1721;51.238;9.562;2023-02-04T07:06:12;6.30;96.10
3416;DHT22;1721;51.238;9.562;2023-02-04T07:08:38;6.30;96.40
3416;DHT22;1721;51.238;9.562;2023-02-04T07:11:03;6.40;96.20
3416;DHT22;1721;51.238;9.562;2023-02-04T07:13:29;6.40;96.00
3416;DHT22;1721;51.238;9.562;2023-02-04T07:15:54;6.50;96.10
3416;DHT22;1721;51.238;9.562;2023-02-04T07:18:20;6.60;96.00
3416;DHT22;1721;51.238;9.562;2023-02-04T07:20:45;6.50;95.70
3416;DHT22;1721;51.238;9.562;2023-02-04T07:23:11;6.50;95.80
3416;DHT22;1721;51.238;9.562;2023-02-04T07:25:37;6.50;95.60
3416;DHT22;1721;51.238;9.562;2023-02-04T07:28:03;6.50;95.80
3416;DHT22;1721;51.238;9.562;2023-02-04T07:30:30;6.50;95.80
3416;DHT22;1721;51.238;9.562;2023-02-04T07:32:56;6.50;95.70
3416;DHT22;1721;51.238;9.562;2023-02-04T07:35:21;6.40;95.90
3416;DHT22;1721;51.238;9.562;2023-02-04T07:37:48;6.40;95.90
3416;DHT22;1721;51.238;9.562;2023-02-04T07:40:14;6.30;96.00
3416;DHT22;1721;51.238;9.562;2023-02-04T07:42:40;6.30;96.20
3416;DHT22;1721;51.238;9.562;2023-02-04T07:45:06;6.40;96.30
3416;DHT22;1721;51.238;9.562;2023-02-04T07:47:31;6.50;96.20
3416;DHT22;1721;51.238;9.562;2023-02-04T07:49:57;6.50;96.00
3416;DHT22;1721;51.238;9.562;2023-02-04T07:52:23;6.60;96.10
3416;DHT22;1721;51.238;9.562;2023-02-04T07:54:49;6.70;96.10
3416;DHT22;1721;51.238;9.562;2023-02-04T07:57:17;6.70;96.00
3416;DHT22;1721;51.238;9.562;2023-02-04T07:59:42;6.70;95.90
3416;DHT22;1721;51.238;9.562;2023-02-04T08:02:09;6.70;95.80
3416;DHT22;1721;51.238;9.562;2023-02-04T08:04:35;6.70;95.80
3416;DHT22;1721;51.238;9.562;2023-02-04T08:07:02;6.70;95.80
3416;DHT22;1721;51.238;9.562;2023-02-04T08:09:28;6.50;95.60
3416;DHT22;1721;51.238;9.562;2023-02-04T08:11:53;6.60;96.10
3416;DHT22;1721;51.238;9.562;2023-02-04T08:14:19;6.60;95.60
3416;DHT22;1721;51.238;9.562;2023-02-04T08:16:45;6.70;95.50
3416;DHT22;1721;51.238;9.562;2023-02-04T08:19:10;6.70;95.60
3416;DHT22;1721;51.238;9.562;2023-02-04T08:21:36;6.50;95.60
3416;DHT22;1721;51.238;9.562;2023-02-04T08:24:01;6.40;95.80
3416;DHT22;1721;51.238;9.562;2023-02-04T08:26:27;6.40;95.80
3416;DHT22;1721;51.238;9.562;2023-02-04T08:28:52;6.30;96.10
3416;DHT22;1721;51.238;9.562;2023-02-04T08:31:18;6.00;96.50
3416;DHT22;1721;51.238;9.562;2023-02-04T08:33:43;6.10;96.60
3416;DHT22;1721;51.238;9.562;2023-02-04T08:36:09;6.00;96.70
3416;DHT22;1721;51.238;9.562;2023-02-04T08:38:34;6.00;96.60
3416;DHT22;1721;51.238;9.562;2023-02-04T08:41:00;6.10;96.50
3416;DHT22;1721;51.238;9.562;2023-02-04T08:43:26;5.90;96.50
3416;DHT22;1721;51.238;9.562;2023-02-04T08:45:51;5.70;96.80
3416;DHT22;1721;51.238;9.562;2023-02-04T08:48:17;6.00;96.70
3416;DHT22;1721;51.238;9.562;2023-02-04T08:50:42;6.20;96.50
3416;DHT22;1721;51.238;9.562;2023-02-04T08:53:08;5.80;96.40
3416;DHT22;1721;51.238;9.562;2023-02-04T08:55:33;5.80;96.60
3416;DHT22;1721;51.238;9.562;2023-02-04T08:57:59;5.80;97.00
3416;DHT22;1721;51.238;9.562;2023-02-04T09:00:26;5.90;96.80
3416;DHT22;1721;51.238;9.562;2023-02-04T09:02:51;6.00;96.60
3416;DHT22;1721;51.238;9.562;2023-02-04T09:05:17;6.00;96.80
3416;DHT22;1721;51.238;9.562;2023-02-04T09:07:43;6.20;96.50
3416;DHT22;1721;51.238;9.562;2023-02-04T09:10:08;6.40;96.40
3416;DHT22;1721;51.238;9.562;2023-02-04T09:12:34;6.60;96.30
3416;DHT22;1721;51.238;9.562;2023-02-04T09:14:59;6.50;96.50
3416;DHT22;1721;51.238;9.562;2023-02-04T09:17:25;6.50;96.00
3416;DHT22;1721;51.238;9.562;2023-02-04T09:19:50;6.50;96.50
3416;DHT22;1721;51.238;9.562;2023-02-04T09:22:16;6.70;96.70
3416;DHT22;1721;51.238;9.562;2023-02-04T09:24:42;6.80;96.30
3416;DHT22;1721;51.238;9.562;2023-02-04T09:27:07;7.20;96.10
3416;DHT22;1721;51.238;9.562;2023-02-04T09:29:33;7.10;95.30
3416;DHT22;1721;51.238;9.562;2023-02-04T09:31:58;7.20;95.50
3416;DHT22;1721;51.238;9.562;2023-02-04T09:34:24;7.20;95.30
3416;DHT22;1721;51.238;9.562;2023-02-04T09:36:50;7.40;95.30
3416;DHT22;1721;51.238;9.562;2023-02-04T09:39:15;7.60;95.20
3416;DHT22;1721;51.238;9.562;2023-02-04T09:41:41;7.70;95.00
3416;DHT22;1721;51.238;9.562;2023-02-04T09:44:26;7.80;94.70
3416;DHT22;1721;51.238;9.562;2023-02-04T09:46:58;7.90;94.10
3416;DHT22;1721;51.238;9.562;2023-02-04T09:49:24;7.80;93.60
3416;DHT22;1721;51.238;9.562;2023-02-04T09:51:51;7.20;93.50
3416;DHT22;1721;51.238;9.562;2023-02-04T09:54:19;7.20;94.40
3416;DHT22;1721;51.238;9.562;2023-02-04T09:56:46;7.40;94.60
3416;DHT22;1721;51.238;9.562;2023-02-04T09:59:14;7.60;94.60
3416;DHT22;1721;51.238;9.562;2023-02-04T10:01:40;7.90;93.80
3416;DHT22;1721;51.238;9.562;2023-02-04T10:04:11;8.10;93.30
3416;DHT22;1721;51.238;9.562;2023-02-04T10:06:37;8.10;93.20
3416;DHT22;1721;51.238;9.562;2023-02-04T10:09:03;8.30;93.20
3416;DHT22;1721;51.238;9.562;2023-02-04T10:11:31;8.50;92.70
3416;DHT22;1721;51.238;9.562;2023-02-04T10:13:57;8.70;92.60
3416;DHT22;1721;51.238;9.562;2023-02-04T10:16:25;8.90;92.40
3416;DHT22;1721;51.238;9.562;2023-02-04T10:18:59;8.20;91.00
3416;DHT22;1721;51.238;9.562;2023-02-04T10:21:35;7.80;92.10
3416;DHT22;1721;51.238;9.562;2023-02-04T10:24:16;7.60;92.00
3416;DHT22;1721;51.238;9.562;2023-02-04T10:26:42;7.70;93.00
3416;DHT22;1721;51.238;9.562;2023-02-04T10:29:14;7.90;93.00
3416;DHT22;1721;51.238;9.562;2023-02-04T10:31:42;8.20;92.90
3416;DHT22;1721;51.238;9.562;2023-02-04T10:36:50;8.40;91.80
3416;DHT22;1721;51.238;9.562;2023-02-04T10:39:42;8.60;91.90
3416;DHT22;1721;51.238;9.562;2023-02-04T10:42:20;8.80;91.50
3416;DHT22;1721;51.238;9.562;2023-02-04T10:44:46;8.70;90.40
3416;DHT22;1721;51.238;9.562;2023-02-04T10:47:24;8.80;90.20
3416;DHT22;1721;51.238;9.562;2023-02-04T10:50:06;8.90;89.60
3416;DHT22;1721;51.238;9.562;2023-02-04T10:52:41;8.90;88.60
3416;DHT22;1721;51.238;9.562;2023-02-04T10:55:13;9.00;89.50
3416;DHT22;1721;51.238;9.562;2023-02-04T10:57:41;9.10;90.00
3416;DHT22;1721;51.238;9.562;2023-02-04T11:00:18;9.00;89.60
3416;DHT22;1721;51.238;9.562;2023-02-04T11:02:57;9.40;89.90
3416;DHT22;1721;51.238;9.562;2023-02-04T11:05:30;9.70;88.80
3416;DHT22;1721;51.238;9.562;2023-02-04T11:07:56;9.70;87.20
3416;DHT22;1721;51.238;9.562;2023-02-04T11:10:24;9.50;87.50
3416;DHT22;1721;51.238;9.562;2023-02-04T11:15:38;8.20;90.00
3416;DHT22;1721;51.238;9.562;2023-02-04T11:18:06;7.90;91.10
3416;DHT22;1721;51.238;9.562;2023-02-04T11:20:33;8.10;90.00
3416;DHT22;1721;51.238;9.562;2023-02-04T11:26:07;8.30;90.30
3416;DHT22;1721;51.238;9.562;2023-02-04T11:39:47;9.50;88.40
3416;DHT22;1721;51.238;9.562;2023-02-04T11:42:22;9.70;87.40
3416;DHT22;1721;51.238;9.562;2023-02-04T11:45:04;9.80;86.00
3416;DHT22;1721;51.238;9.562;2023-02-04T11:47:35;9.40;86.70
3416;DHT22;1721;51.238;9.562;2023-02-04T11:50:09;9.20;89.90
3416;DHT22;1721;51.238;9.562;2023-02-04T11:52:36;9.40;89.30
3416;DHT22;1721;51.238;9.562;2023-02-04T11:55:01;9.60;88.60
3416;DHT22;1721;51.238;9.562;2023-02-04T11:57:27;9.80;87.60
3416;DHT22;1721;51.238;9.562;2023-02-04T11:59:53;9.50;86.50
3416;DHT22;1721;51.238;9.562;2023-02-04T12:02:22;9.30;86.20
3416;DHT22;1721;51.238;9.562;2023-02-04T12:05:17;9.00;84.90
3416;DHT22;1721;51.238;9.562;2023-02-04T12:07:44;9.10;85.50
3416;DHT22;1721;51.238;9.562;2023-02-04T12:12:49;9.30;85.90
3416;DHT22;1721;51.238;9.562;2023-02-04T12:15:36;9.60;85.80
3416;DHT22;1721;51.238;9.562;2023-02-04T12:18:02;9.70;86.20
3416;DHT22;1721;51.238;9.562;2023-02-04T12:20:28;9.70;86.30
3416;DHT22;1721;51.238;9.562;2023-02-04T12:22:54;9.50;86.30
3416;DHT22;1721;51.238;9.562;2023-02-04T12:25:19;9.50;85.60
3416;DHT22;1721;51.238;9.562;2023-02-04T12:27:45;9.00;86.70
3416;DHT22;1721;51.238;9.562;2023-02-04T12:30:11;8.90;87.30
3416;DHT22;1721;51.238;9.562;2023-02-04T12:32:37;8.90;87.30
3416;DHT22;1721;51.238;9.562;2023-02-04T12:35:03;9.00;87.40
3416;DHT22;1721;51.238;9.562;2023-02-04T12:37:30;9.10;87.10
3416;DHT22;1721;51.238;9.562;2023-02-04T12:39:56;9.30;87.30
3416;DHT22;1721;51.238;9.562;2023-02-04T12:42:21;9.40;87.50
3416;DHT22;1721;51.238;9.562;2023-02-04T12:44:47;9.20;87.40
3416;DHT22;1721;51.238;9.562;2023-02-04T12:47:12;9.20;87.70
3416;DHT22;1721;51.238;9.562;2023-02-04T12:49:38;9.00;88.10
3416;DHT22;1721;51.238;9.562;2023-02-04T12:52:04;8.90;89.30
3416;DHT22;1721;51.238;9.562;2023-02-04T12:54:30;8.80;89.60
3416;DHT22;1721;51.238;9.562;2023-02-04T12:56:56;8.80;89.80
3416;DHT22;1721;51.238;9.562;2023-02-04T12:59:23;8.90;89.80
3416;DHT22;1721;51.238;9.562;2023-02-04T13:01:49;9.00;89.70
3416;DHT22;1721;51.238;9.562;2023-02-04T13:04:15;9.20;89.00
3416;DHT22;1721;51.238;9.562;2023-02-04T13:06:40;8.60;85.80
3416;DHT22;1721;51.238;9.562;2023-02-04T13:09:06;8.00;89.30
3416;DHT22;1721;51.238;9.562;2023-02-04T13:11:31;7.90;88.70
3416;DHT22;1721;51.238;9.562;2023-02-04T13:13:57;8.30;88.60
3416;DHT22;1721;51.238;9.562;2023-02-04T13:16:22;8.50;86.90
3416;DHT22;1721;51.238;9.562;2023-02-04T13:18:49;7.90;88.20
3416;DHT22;1721;51.238;9.562;2023-02-04T13:21:15;8.10;89.00
3416;DHT22;1721;51.238;9.562;2023-02-04T13:23:40;7.80;89.60
3416;DHT22;1721;51.238;9.562;2023-02-04T13:26:06;7.50;90.50
3416;DHT22;1721;51.238;9.562;2023-02-04T13:28:33;7.40;90.30
3416;DHT22;1721;51.238;9.562;2023-02-04T13:30:59;7.80;89.20
3416;DHT22;1721;51.238;9.562;2023-02-04T13:33:25;7.80;89.30
3416;DHT22;1721;51.238;9.562;2023-02-04T13:35:50;8.30;88.60
3416;DHT22;1721;51.238;9.562;2023-02-04T13:38:16;8.80;86.40
3416;DHT22;1721;51.238;9.562;2023-02-04T13:40:42;8.70;86.20
3416;DHT22;1721;51.238;9.562;2023-02-04T13:43:07;8.70;87.70
3416;DHT22;1721;51.238;9.562;2023-02-04T13:45:33;8.50;87.10
3416;DHT22;1721;51.238;9.562;2023-02-04T13:47:58;7.90;88.20
3416;DHT22;1721;51.238;9.562;2023-02-04T13:50:24;7.50;90.20
3416;DHT22;1721;51.238;9.562;2023-02-04T13:52:49;7.30;88.80
3416;DHT22;1721;51.238;9.562;2023-02-04T13:55:15;7.20;89.70
3416;DHT22;1721;51.238;9.562;2023-02-04T13:57:41;7.00;90.20
3416;DHT22;1721;51.238;9.562;2023-02-04T14:00:07;6.90;91.20
3416;DHT22;1721;51.238;9.562;2023-02-04T14:02:33;7.00;91.40
3416;DHT22;1721;51.238;9.562;2023-02-04T14:04:58;7.10;90.90
3416;DHT22;1721;51.238;9.562;2023-02-04T14:07:24;7.00;90.50
3416;DHT22;1721;51.238;9.562;2023-02-04T14:09:49;7.30;90.80
3416;DHT22;1721;51.238;9.562;2023-02-04T14:12:15;7.40;91.00
3416;DHT22;1721;51.238;9.562;2023-02-04T14:14:40;7.80;90.00
3416;DHT22;1721;51.238;9.562;2023-02-04T14:17:06;7.80;90.00
3416;DHT22;1721;51.238;9.562;2023-02-04T14:19:32;7.70;89.80
3416;DHT22;1721;51.238;9.562;2023-02-04T14:21:57;7.80;90.30
3416;DHT22;1721;51.238;9.562;2023-02-04T14:24:23;7.70;89.60
3416;DHT22;1721;51.238;9.562;2023-02-04T14:26:49;7.90;89.60
3416;DHT22;1721;51.238;9.562;2023-02-04T14:29:15;8.20;87.70
3416;DHT22;1721;51.238;9.562;2023-02-04T14:31:40;8.00;86.30
3416;DHT22;1721;51.238;9.562;2023-02-04T14:34:06;7.90;88.20
3416;DHT22;1721;51.238;9.562;2023-02-04T14:36:32;8.20;88.40
3416;DHT22;1721;51.238;9.562;2023-02-04T14:38:57;8.00;87.30
3416;DHT22;1721;51.238;9.562;2023-02-04T14:41:23;8.20;88.10
3416;DHT22;1721;51.238;9.562;2023-02-04T14:43:51;8.50;88.80
3416;DHT22;1721;51.238;9.562;2023-02-04T14:46:18;8.60;88.20
3416;DHT22;1721;51.238;9.562;2023-02-04T14:48:44;7.90;85.90
3416;DHT22;1721;51.238;9.562;2023-02-04T14:51:10;7.70;87.90
3416;DHT22;1721;51.238;9.562;2023-02-04T14:53:36;7.90;86.90
3416;DHT22;1721;51.238;9.562;2023-02-04T14:56:02;7.90;88.00
3416;DHT22;1721;51.238;9.562;2023-02-04T14:58:27;7.80;89.20
3416;DHT22;1721;51.238;9.562;2023-02-04T15:00:53;7.60;88.60
3416;DHT22;1721;51.238;9.562;2023-02-04T15:03:19;7.70;90.00
3416;DHT22;1721;51.238;9.562;2023-02-04T15:05:44;7.40;87.40
3416;DHT22;1721;51.238;9.562;2023-02-04T15:08:10;7.70;88.90
3416;DHT22;1721;51.238;9.562;2023-02-04T15:10:36;7.90;87.00
3416;DHT22;1721;51.238;9.562;2023-02-04T15:13:01;7.90;87.30
3416;DHT22;1721;51.238;9.562;2023-02-04T15:15:27;8.10;88.80
3416;DHT22;1721;51.238;9.562;2023-02-04T15:17:52;7.90;87.20
3416;DHT22;1721;51.238;9.562;2023-02-04T15:20:18;7.80;88.70
3416;DHT22;1721;51.238;9.562;2023-02-04T15:22:44;7.70;87.60
3416;DHT22;1721;51.238;9.562;2023-02-04T15:25:11;7.50;88.40
3416;DHT22;1721;51.238;9.562;2023-02-04T15:27:37;7.60;88.80
3416;DHT22;1721;51.238;9.562;2023-02-04T15:30:03;7.90;89.50
3416;DHT22;1721;51.238;9.562;2023-02-04T15:32:29;7.90;88.50
3416;DHT22;1721;51.238;9.562;2023-02-04T15:34:54;8.20;88.20
3416;DHT22;1721;51.238;9.562;2023-02-04T15:37:20;8.40;88.60
3416;DHT22;1721;51.238;9.562;2023-02-04T15:39:45;8.30;87.80
3416;DHT22;1721;51.238;9.562;2023-02-04T15:42:11;8.10;86.80
3416;DHT22;1721;51.238;9.562;2023-02-04T15:44:37;8.20;87.50
3416;DHT22;1721;51.238;9.562;2023-02-04T15:47:02;8.30;87.60
3416;DHT22;1721;51.238;9.562;2023-02-04T15:49:28;8.20;88.20
3416;DHT22;1721;51.238;9.562;2023-02-04T15:51:53;8.20;87.80
3416;DHT22;1721;51.238;9.562;2023-02-04T15:54:19;7.90;88.40
3416;DHT22;1721;51.238;9.562;2023-02-04T15:56:44;7.60;88.00
3416;DHT22;1721;51.238;9.562;2023-02-04T15:59:10;7.50;88.10
3416;DHT22;1721;51.238;9.562;2023-02-04T16:01:35;7.50;88.40
3416;DHT22;1721;51.238;9.562;2023-02-04T16:04:01;7.70;88.20
3416;DHT22;1721;51.238;9.562;2023-02-04T16:06:26;7.70;87.10
3416;DHT22;1721;51.238;9.562;2023-02-04T16:08:52;7.60;86.20
3416;DHT22;1721;51.238;9.562;2023-02-04T16:11:18;7.60;86.20
3416;DHT22;1721;51.238;9.562;2023-02-04T16:13:43;7.40;87.00
3416;DHT22;1721;51.238;9.562;2023-02-04T16:16:10;7.30;87.20
3416;DHT22;1721;51.238;9.562;2023-02-04T16:18:35;7.00;89.00
3416;DHT22;1721;51.238;9.562;2023-02-04T16:21:01;7.10;88.90
3416;DHT22;1721;51.238;9.562;2023-02-04T16:23:27;7.10;88.90
3416;DHT22;1721;51.238;9.562;2023-02-04T16:25:52;7.20;89.00
3416;DHT22;1721;51.238;9.562;2023-02-04T16:28:18;7.20;89.60
3416;DHT22;1721;51.238;9.562;2023-02-04T16:30:44;7.10;90.10
3416;DHT22;1721;51.238;9.562;2023-02-04T16:33:09;7.00;90.50
3416;DHT22;1721;51.238;9.562;2023-02-04T16:36:00;6.90;90.90